< Typhoon 197134 1971 Season Typhoon 197136 >
Typhoon 197135 (IRMA)
General InformationTrack Information on Google Maps || Disaster Info.ResourceGoogle EarthGE AnimationAtom FeedGeoJSON
Detalied Best Track (Time Zone = UTC)
Year Month Day Hour Lat. Long. Pressure (hPa) Wind (kt) Class Image Chart
1971 11 7 12 6.5 143.3 1004 0 2 -- Chart
1971 11 7 18 6.7 143.0 1002 0 2 -- Chart
1971 11 8 00 7.0 142.8 1000 0 2 -- Chart
1971 11 8 06 7.4 142.5 992 0 9 -- Chart
1971 11 8 12 7.6 142.3 994 0 9 -- Chart
1971 11 8 18 7.9 142.0 994 0 9 -- Chart
1971 11 9 00 8.2 141.5 994 0 9 -- Chart
1971 11 9 06 7.8 141.2 985 0 9 -- Chart
1971 11 9 12 8.6 141.3 980 0 9 -- Chart
1971 11 9 18 9.5 140.6 985 0 9 -- Chart
1971 11 10 00 10.1 140.2 985 0 9 -- Chart
1971 11 10 06 11.2 139.4 985 0 9 -- Chart
1971 11 10 12 12.4 138.3 980 0 9 -- Chart
1971 11 10 18 13.2 136.8 975 0 9 -- Chart
1971 11 11 00 13.8 135.6 965 0 9 -- Chart
1971 11 11 06 14.3 134.3 945 0 9 -- Chart
1971 11 11 12 14.9 132.9 910 0 9 -- Chart
1971 11 11 18 15.9 131.7 885 0 9 -- Chart
1971 11 12 00 16.8 130.2 890 0 9 -- Chart
1971 11 12 06 18.0 129.0 895 0 9 -- Chart
1971 11 12 12 18.5 128.4 905 0 9 -- Chart
1971 11 12 18 19.3 127.7 915 0 9 -- Chart
1971 11 13 00 20.0 127.5 925 0 9 -- Chart
1971 11 13 06 20.9 127.1 930 0 9 -- Chart
1971 11 13 12 21.7 127.0 940 0 9 -- Chart
1971 11 13 18 22.4 126.8 945 0 9 -- Chart
1971 11 14 00 23.3 127.1 950 0 9 -- Chart
1971 11 14 06 24.3 127.5 955 0 9 -- Chart
1971 11 14 12 25.5 128.5 960 0 9 -- Chart
1971 11 14 18 26.4 129.6 960 0 9 -- Chart
1971 11 15 00 27.5 131.7 965 0 9 -- Chart
1971 11 15 06 29.2 134.6 965 0 9 -- Chart
1971 11 15 12 30.6 137.8 970 0 9 -- Chart
1971 11 15 18 31.3 141.5 975 0 9 -- Chart
1971 11 16 00 31.7 145.5 980 0 9 -- Chart
1971 11 16 06 32.0 152.0 988 0 9 -- Chart
1971 11 16 12 32.0 157.2 994 0 6 -- Chart
1971 11 16 18 31.8 162.2 1000 0 6 -- Chart
1971 11 17 00 32.0 168.0 1000 0 6 -- Chart
1971 11 17 06 32.0 175.0 1002 0 6 -- Chart
1971 11 17 12 33.0 181.0 1004 0 6 -- Chart
Japan Meteorological Agency Best Track Data | Correction Date : 1989-06-01
< Typhoon 197134 1971 Season Typhoon 197136 >

Help